sensor_id;sensor_type;location;lat;lon;timestamp;P1;durP1;ratioP1;P2;durP2;ratioP2
33076;SDS011;67066;51.964;5.924;2024-03-17T00:02:17;17.60;;;8.88;;
33076;SDS011;67066;51.964;5.924;2024-03-17T00:04:46;20.85;;;10.05;;
33076;SDS011;67066;51.964;5.924;2024-03-17T00:07:13;17.02;;;8.52;;
33076;SDS011;67066;51.964;5.924;2024-03-17T00:09:39;19.65;;;9.05;;
33076;SDS011;67066;51.964;5.924;2024-03-17T00:12:06;20.98;;;7.97;;
33076;SDS011;67066;51.964;5.924;2024-03-17T00:14:33;14.02;;;8.30;;
33076;SDS011;67066;51.964;5.924;2024-03-17T00:17:00;15.35;;;8.57;;
33076;SDS011;67066;51.964;5.924;2024-03-17T00:19:27;17.17;;;9.68;;
33076;SDS011;67066;51.964;5.924;2024-03-17T00:21:53;15.77;;;8.88;;
33076;SDS011;67066;51.964;5.924;2024-03-17T00:24:19;25.00;;;8.45;;
33076;SDS011;67066;51.964;5.924;2024-03-17T00:26:46;13.57;;;7.50;;
33076;SDS011;67066;51.964;5.924;2024-03-17T00:29:12;17.40;;;8.18;;
33076;SDS011;67066;51.964;5.924;2024-03-17T00:31:40;23.02;;;8.80;;
33076;SDS011;67066;51.964;5.924;2024-03-17T00:34:06;19.42;;;9.88;;
33076;SDS011;67066;51.964;5.924;2024-03-17T00:36:33;19.65;;;8.48;;
33076;SDS011;67066;51.964;5.924;2024-03-17T00:38:59;16.00;;;8.35;;
33076;SDS011;67066;51.964;5.924;2024-03-17T00:41:26;22.90;;;8.73;;
33076;SDS011;67066;51.964;5.924;2024-03-17T00:43:52;13.98;;;7.95;;
33076;SDS011;67066;51.964;5.924;2024-03-17T00:46:20;14.60;;;7.28;;
33076;SDS011;67066;51.964;5.924;2024-03-17T00:48:49;21.60;;;8.02;;
33076;SDS011;67066;51.964;5.924;2024-03-17T00:51:16;14.55;;;7.80;;
33076;SDS011;67066;51.964;5.924;2024-03-17T00:53:42;19.33;;;7.45;;
33076;SDS011;67066;51.964;5.924;2024-03-17T00:56:08;16.85;;;9.02;;
33076;SDS011;67066;51.964;5.924;2024-03-17T00:58:34;15.13;;;7.90;;
33076;SDS011;67066;51.964;5.924;2024-03-17T01:01:00;16.83;;;7.15;;
33076;SDS011;67066;51.964;5.924;2024-03-17T01:03:26;15.73;;;7.72;;
33076;SDS011;67066;51.964;5.924;2024-03-17T01:05:53;19.13;;;7.88;;
33076;SDS011;67066;51.964;5.924;2024-03-17T01:08:19;27.33;;;7.90;;
33076;SDS011;67066;51.964;5.924;2024-03-17T01:10:46;14.93;;;7.03;;
33076;SDS011;67066;51.964;5.924;2024-03-17T01:13:15;15.80;;;7.75;;
33076;SDS011;67066;51.964;5.924;2024-03-17T01:15:42;17.60;;;8.00;;
33076;SDS011;67066;51.964;5.924;2024-03-17T01:18:09;16.90;;;8.18;;
33076;SDS011;67066;51.964;5.924;2024-03-17T01:20:35;17.27;;;8.40;;
33076;SDS011;67066;51.964;5.924;2024-03-17T01:23:05;15.80;;;9.35;;
33076;SDS011;67066;51.964;5.924;2024-03-17T01:25:34;21.10;;;8.52;;
33076;SDS011;67066;51.964;5.924;2024-03-17T01:28:03;16.45;;;8.38;;
33076;SDS011;67066;51.964;5.924;2024-03-17T01:30:30;19.55;;;9.45;;
33076;SDS011;67066;51.964;5.924;2024-03-17T01:32:58;19.05;;;8.98;;
33076;SDS011;67066;51.964;5.924;2024-03-17T01:35:27;18.50;;;9.32;;
33076;SDS011;67066;51.964;5.924;2024-03-17T01:37:53;11.90;;;8.18;;
33076;SDS011;67066;51.964;5.924;2024-03-17T01:40:19;23.05;;;8.02;;
33076;SDS011;67066;51.964;5.924;2024-03-17T01:42:46;14.38;;;8.13;;
33076;SDS011;67066;51.964;5.924;2024-03-17T01:45:29;17.52;;;7.80;;
33076;SDS011;67066;51.964;5.924;2024-03-17T01:47:58;21.92;;;8.52;;
33076;SDS011;67066;51.964;5.924;2024-03-17T01:50:26;15.90;;;8.27;;
33076;SDS011;67066;51.964;5.924;2024-03-17T01:52:57;21.90;;;9.32;;
33076;SDS011;67066;51.964;5.924;2024-03-17T01:55:26;16.13;;;7.78;;
33076;SDS011;67066;51.964;5.924;2024-03-17T01:57:53;17.88;;;8.50;;
33076;SDS011;67066;51.964;5.924;2024-03-17T02:00:19;17.27;;;8.70;;
33076;SDS011;67066;51.964;5.924;2024-03-17T02:02:46;11.27;;;7.40;;
33076;SDS011;67066;51.964;5.924;2024-03-17T02:05:13;18.73;;;8.88;;
33076;SDS011;67066;51.964;5.924;2024-03-17T02:07:39;12.40;;;7.40;;
33076;SDS011;67066;51.964;5.924;2024-03-17T02:10:06;14.52;;;7.47;;
33076;SDS011;67066;51.964;5.924;2024-03-17T02:12:34;14.45;;;7.65;;
33076;SDS011;67066;51.964;5.924;2024-03-17T02:15:01;11.98;;;7.47;;
33076;SDS011;67066;51.964;5.924;2024-03-17T02:17:33;14.93;;;8.20;;
33076;SDS011;67066;51.964;5.924;2024-03-17T02:20:00;19.33;;;7.95;;
33076;SDS011;67066;51.964;5.924;2024-03-17T02:22:26;21.13;;;8.77;;
33076;SDS011;67066;51.964;5.924;2024-03-17T02:24:55;13.13;;;7.78;;
33076;SDS011;67066;51.964;5.924;2024-03-17T02:27:21;17.17;;;7.88;;
33076;SDS011;67066;51.964;5.924;2024-03-17T02:29:47;9.13;;;7.28;;
33076;SDS011;67066;51.964;5.924;2024-03-17T02:32:13;22.67;;;8.30;;
33076;SDS011;67066;51.964;5.924;2024-03-17T02:34:39;16.33;;;8.02;;
33076;SDS011;67066;51.964;5.924;2024-03-17T02:37:06;17.48;;;8.38;;
33076;SDS011;67066;51.964;5.924;2024-03-17T02:39:33;13.93;;;7.93;;
33076;SDS011;67066;51.964;5.924;2024-03-17T02:42:03;19.33;;;8.32;;
33076;SDS011;67066;51.964;5.924;2024-03-17T02:44:31;15.93;;;8.57;;
33076;SDS011;67066;51.964;5.924;2024-03-17T02:46:58;16.60;;;8.90;;
33076;SDS011;67066;51.964;5.924;2024-03-17T02:49:25;12.07;;;7.60;;
33076;SDS011;67066;51.964;5.924;2024-03-17T02:51:53;16.70;;;8.65;;
33076;SDS011;67066;51.964;5.924;2024-03-17T02:54:20;15.50;;;9.15;;
33076;SDS011;67066;51.964;5.924;2024-03-17T02:56:48;20.77;;;8.77;;
33076;SDS011;67066;51.964;5.924;2024-03-17T02:59:14;19.35;;;8.73;;
33076;SDS011;67066;51.964;5.924;2024-03-17T03:01:40;23.00;;;9.38;;
33076;SDS011;67066;51.964;5.924;2024-03-17T03:04:06;18.13;;;8.90;;
33076;SDS011;67066;51.964;5.924;2024-03-17T03:06:33;20.27;;;8.10;;
33076;SDS011;67066;51.964;5.924;2024-03-17T03:08:59;17.58;;;8.95;;
33076;SDS011;67066;51.964;5.924;2024-03-17T03:11:25;14.65;;;9.07;;
33076;SDS011;67066;51.964;5.924;2024-03-17T03:13:51;21.60;;;8.77;;
33076;SDS011;67066;51.964;5.924;2024-03-17T03:16:17;24.60;;;10.00;;
33076;SDS011;67066;51.964;5.924;2024-03-17T03:18:44;13.05;;;9.45;;
33076;SDS011;67066;51.964;5.924;2024-03-17T03:21:11;16.02;;;9.70;;
33076;SDS011;67066;51.964;5.924;2024-03-17T03:23:38;19.70;;;8.90;;
33076;SDS011;67066;51.964;5.924;2024-03-17T03:26:04;20.35;;;9.77;;
33076;SDS011;67066;51.964;5.924;2024-03-17T03:28:32;21.92;;;9.82;;
33076;SDS011;67066;51.964;5.924;2024-03-17T03:31:01;18.40;;;9.00;;
33076;SDS011;67066;51.964;5.924;2024-03-17T03:33:27;22.10;;;8.80;;
33076;SDS011;67066;51.964;5.924;2024-03-17T03:35:54;23.60;;;9.68;;
33076;SDS011;67066;51.964;5.924;2024-03-17T03:38:21;24.05;;;9.35;;
33076;SDS011;67066;51.964;5.924;2024-03-17T03:40:48;19.67;;;9.30;;
33076;SDS011;67066;51.964;5.924;2024-03-17T03:43:14;19.08;;;8.80;;
33076;SDS011;67066;51.964;5.924;2024-03-17T03:45:40;15.82;;;9.98;;
33076;SDS011;67066;51.964;5.924;2024-03-17T03:48:07;14.38;;;9.48;;
33076;SDS011;67066;51.964;5.924;2024-03-17T03:50:34;17.48;;;10.00;;
33076;SDS011;67066;51.964;5.924;2024-03-17T03:53:01;20.98;;;9.43;;
33076;SDS011;67066;51.964;5.924;2024-03-17T03:55:27;20.85;;;10.05;;
33076;SDS011;67066;51.964;5.924;2024-03-17T03:57:54;24.38;;;9.27;;
33076;SDS011;67066;51.964;5.924;2024-03-17T04:00:21;19.95;;;10.82;;
33076;SDS011;67066;51.964;5.924;2024-03-17T04:02:50;18.67;;;8.90;;
33076;SDS011;67066;51.964;5.924;2024-03-17T04:05:18;14.50;;;9.38;;
33076;SDS011;67066;51.964;5.924;2024-03-17T04:07:45;16.88;;;8.80;;
33076;SDS011;67066;51.964;5.924;2024-03-17T04:10:12;15.15;;;9.70;;
33076;SDS011;67066;51.964;5.924;2024-03-17T04:12:39;16.90;;;9.23;;
33076;SDS011;67066;51.964;5.924;2024-03-17T04:15:06;17.23;;;10.38;;
33076;SDS011;67066;51.964;5.924;2024-03-17T04:17:35;18.48;;;9.95;;
33076;SDS011;67066;51.964;5.924;2024-03-17T04:20:05;14.85;;;9.90;;
33076;SDS011;67066;51.964;5.924;2024-03-17T04:22:33;17.27;;;9.82;;
33076;SDS011;67066;51.964;5.924;2024-03-17T04:25:00;17.52;;;10.50;;
33076;SDS011;67066;51.964;5.924;2024-03-17T04:27:26;20.13;;;9.95;;
33076;SDS011;67066;51.964;5.924;2024-03-17T04:29:54;15.93;;;9.55;;
33076;SDS011;67066;51.964;5.924;2024-03-17T04:32:21;22.73;;;10.55;;
33076;SDS011;67066;51.964;5.924;2024-03-17T04:34:48;16.10;;;9.63;;
33076;SDS011;67066;51.964;5.924;2024-03-17T04:37:15;23.52;;;10.48;;
33076;SDS011;67066;51.964;5.924;2024-03-17T04:39:42;18.80;;;11.27;;
33076;SDS011;67066;51.964;5.924;2024-03-17T04:42:10;21.63;;;10.40;;
33076;SDS011;67066;51.964;5.924;2024-03-17T04:44:37;15.20;;;10.38;;
33076;SDS011;67066;51.964;5.924;2024-03-17T04:47:03;17.63;;;10.05;;
33076;SDS011;67066;51.964;5.924;2024-03-17T04:49:35;24.27;;;10.30;;
33076;SDS011;67066;51.964;5.924;2024-03-17T04:52:01;16.00;;;10.57;;
33076;SDS011;67066;51.964;5.924;2024-03-17T04:54:28;20.02;;;10.82;;
33076;SDS011;67066;51.964;5.924;2024-03-17T04:56:54;20.08;;;12.00;;
33076;SDS011;67066;51.964;5.924;2024-03-17T04:59:20;23.15;;;11.18;;
33076;SDS011;67066;51.964;5.924;2024-03-17T05:01:46;17.92;;;11.00;;
33076;SDS011;67066;51.964;5.924;2024-03-17T05:04:14;15.57;;;10.68;;
33076;SDS011;67066;51.964;5.924;2024-03-17T05:06:41;15.82;;;10.27;;
33076;SDS011;67066;51.964;5.924;2024-03-17T05:09:14;22.00;;;10.32;;
33076;SDS011;67066;51.964;5.924;2024-03-17T05:11:43;14.38;;;10.32;;
33076;SDS011;67066;51.964;5.924;2024-03-17T05:14:10;14.18;;;10.50;;
33076;SDS011;67066;51.964;5.924;2024-03-17T05:16:36;16.95;;;10.40;;
33076;SDS011;67066;51.964;5.924;2024-03-17T05:19:02;18.77;;;10.23;;
33076;SDS011;67066;51.964;5.924;2024-03-17T05:21:33;22.77;;;11.13;;
33076;SDS011;67066;51.964;5.924;2024-03-17T05:24:02;16.67;;;10.25;;
33076;SDS011;67066;51.964;5.924;2024-03-17T05:26:29;19.77;;;11.07;;
33076;SDS011;67066;51.964;5.924;2024-03-17T05:28:57;18.80;;;10.52;;
33076;SDS011;67066;51.964;5.924;2024-03-17T05:31:23;22.67;;;12.13;;
33076;SDS011;67066;51.964;5.924;2024-03-17T05:33:49;19.48;;;11.20;;
33076;SDS011;67066;51.964;5.924;2024-03-17T05:36:17;15.95;;;11.35;;
33076;SDS011;67066;51.964;5.924;2024-03-17T05:38:45;18.00;;;11.27;;
33076;SDS011;67066;51.964;5.924;2024-03-17T05:41:12;19.83;;;11.40;;
33076;SDS011;67066;51.964;5.924;2024-03-17T05:43:38;17.85;;;11.35;;
33076;SDS011;67066;51.964;5.924;2024-03-17T05:46:05;17.63;;;10.77;;
33076;SDS011;67066;51.964;5.924;2024-03-17T05:48:35;18.83;;;12.13;;
33076;SDS011;67066;51.964;5.924;2024-03-17T05:51:03;18.65;;;11.35;;
33076;SDS011;67066;51.964;5.924;2024-03-17T05:53:34;17.90;;;12.38;;
33076;SDS011;67066;51.964;5.924;2024-03-17T05:56:01;21.88;;;12.52;;
33076;SDS011;67066;51.964;5.924;2024-03-17T05:58:28;16.65;;;11.63;;
33076;SDS011;67066;51.964;5.924;2024-03-17T06:00:54;19.60;;;11.77;;
33076;SDS011;67066;51.964;5.924;2024-03-17T06:03:20;25.58;;;12.57;;
33076;SDS011;67066;51.964;5.924;2024-03-17T06:05:47;21.73;;;12.40;;
33076;SDS011;67066;51.964;5.924;2024-03-17T06:08:14;21.30;;;12.73;;
33076;SDS011;67066;51.964;5.924;2024-03-17T06:10:44;20.88;;;13.70;;
33076;SDS011;67066;51.964;5.924;2024-03-17T06:13:12;29.90;;;15.18;;
33076;SDS011;67066;51.964;5.924;2024-03-17T06:15:40;22.30;;;13.15;;
33076;SDS011;67066;51.964;5.924;2024-03-17T06:18:07;27.17;;;12.90;;
33076;SDS011;67066;51.964;5.924;2024-03-17T06:20:36;22.27;;;14.20;;
33076;SDS011;67066;51.964;5.924;2024-03-17T06:23:07;23.77;;;13.75;;
33076;SDS011;67066;51.964;5.924;2024-03-17T06:25:38;19.85;;;13.30;;
33076;SDS011;67066;51.964;5.924;2024-03-17T06:28:04;24.90;;;15.40;;
33076;SDS011;67066;51.964;5.924;2024-03-17T06:30:30;21.85;;;13.85;;
33076;SDS011;67066;51.964;5.924;2024-03-17T06:32:58;23.45;;;14.57;;
33076;SDS011;67066;51.964;5.924;2024-03-17T06:35:24;22.08;;;14.18;;
33076;SDS011;67066;51.964;5.924;2024-03-17T06:37:52;20.58;;;13.73;;
33076;SDS011;67066;51.964;5.924;2024-03-17T06:40:18;25.13;;;15.35;;
33076;SDS011;67066;51.964;5.924;2024-03-17T06:42:44;23.60;;;14.82;;
33076;SDS011;67066;51.964;5.924;2024-03-17T06:45:10;25.75;;;14.27;;
33076;SDS011;67066;51.964;5.924;2024-03-17T06:47:37;30.98;;;15.57;;
33076;SDS011;67066;51.964;5.924;2024-03-17T06:50:04;25.38;;;16.20;;
33076;SDS011;67066;51.964;5.924;2024-03-17T06:52:31;25.33;;;14.57;;
33076;SDS011;67066;51.964;5.924;2024-03-17T06:54:58;33.28;;;16.05;;
33076;SDS011;67066;51.964;5.924;2024-03-17T06:57:24;27.17;;;14.20;;
33076;SDS011;67066;51.964;5.924;2024-03-17T06:59:51;28.55;;;15.23;;
33076;SDS011;67066;51.964;5.924;2024-03-17T07:02:17;31.33;;;14.43;;
33076;SDS011;67066;51.964;5.924;2024-03-17T07:04:45;24.02;;;15.63;;
33076;SDS011;67066;51.964;5.924;2024-03-17T07:07:12;23.27;;;15.50;;
33076;SDS011;67066;51.964;5.924;2024-03-17T07:09:39;22.48;;;14.50;;
33076;SDS011;67066;51.964;5.924;2024-03-17T07:12:09;24.33;;;13.95;;
33076;SDS011;67066;51.964;5.924;2024-03-17T07:14:36;29.65;;;14.38;;
33076;SDS011;67066;51.964;5.924;2024-03-17T07:17:02;21.48;;;13.95;;
33076;SDS011;67066;51.964;5.924;2024-03-17T07:19:29;27.58;;;14.02;;
33076;SDS011;67066;51.964;5.924;2024-03-17T07:21:56;25.13;;;14.18;;
33076;SDS011;67066;51.964;5.924;2024-03-17T07:24:23;24.55;;;14.40;;
33076;SDS011;67066;51.964;5.924;2024-03-17T07:26:49;25.65;;;14.73;;
33076;SDS011;67066;51.964;5.924;2024-03-17T07:29:16;21.40;;;13.68;;
33076;SDS011;67066;51.964;5.924;2024-03-17T07:31:43;29.27;;;13.90;;
33076;SDS011;67066;51.964;5.924;2024-03-17T07:34:09;17.35;;;12.98;;
33076;SDS011;67066;51.964;5.924;2024-03-17T07:36:35;22.73;;;13.23;;
33076;SDS011;67066;51.964;5.924;2024-03-17T07:39:01;18.42;;;12.40;;
33076;SDS011;67066;51.964;5.924;2024-03-17T07:41:34;20.63;;;12.80;;
33076;SDS011;67066;51.964;5.924;2024-03-17T07:44:00;22.48;;;11.88;;
33076;SDS011;67066;51.964;5.924;2024-03-17T07:46:26;17.45;;;10.65;;
33076;SDS011;67066;51.964;5.924;2024-03-17T07:48:52;17.13;;;10.63;;
33076;SDS011;67066;51.964;5.924;2024-03-17T07:51:19;19.02;;;9.27;;
33076;SDS011;67066;51.964;5.924;2024-03-17T07:53:46;18.48;;;9.73;;
33076;SDS011;67066;51.964;5.924;2024-03-17T07:56:17;20.60;;;9.63;;
33076;SDS011;67066;51.964;5.924;2024-03-17T07:58:44;11.30;;;7.63;;
33076;SDS011;67066;51.964;5.924;2024-03-17T08:01:11;16.52;;;8.68;;
33076;SDS011;67066;51.964;5.924;2024-03-17T08:03:39;14.25;;;9.55;;
33076;SDS011;67066;51.964;5.924;2024-03-17T08:06:07;16.23;;;9.25;;
33076;SDS011;67066;51.964;5.924;2024-03-17T08:08:34;12.05;;;8.27;;
33076;SDS011;67066;51.964;5.924;2024-03-17T08:11:00;14.80;;;8.13;;
33076;SDS011;67066;51.964;5.924;2024-03-17T08:13:30;16.52;;;7.95;;
33076;SDS011;67066;51.964;5.924;2024-03-17T08:16:01;15.25;;;8.55;;
33076;SDS011;67066;51.964;5.924;2024-03-17T08:18:28;13.00;;;7.97;;
33076;SDS011;67066;51.964;5.924;2024-03-17T08:20:54;12.65;;;8.23;;
33076;SDS011;67066;51.964;5.924;2024-03-17T08:23:21;16.25;;;8.27;;
33076;SDS011;67066;51.964;5.924;2024-03-17T08:25:52;11.48;;;7.68;;
33076;SDS011;67066;51.964;5.924;2024-03-17T08:28:22;10.70;;;7.47;;
33076;SDS011;67066;51.964;5.924;2024-03-17T08:30:53;10.90;;;7.32;;
33076;SDS011;67066;51.964;5.924;2024-03-17T08:33:20;16.58;;;7.75;;
33076;SDS011;67066;51.964;5.924;2024-03-17T08:35:55;15.70;;;7.78;;
33076;SDS011;67066;51.964;5.924;2024-03-17T08:38:24;8.23;;;6.45;;
33076;SDS011;67066;51.964;5.924;2024-03-17T08:41:20;9.35;;;6.20;;
33076;SDS011;67066;51.964;5.924;2024-03-17T08:43:46;11.13;;;6.53;;
33076;SDS011;67066;51.964;5.924;2024-03-17T08:46:12;11.90;;;7.05;;
33076;SDS011;67066;51.964;5.924;2024-03-17T08:48:39;11.50;;;6.68;;
33076;SDS011;67066;51.964;5.924;2024-03-17T08:51:07;11.20;;;6.50;;
33076;SDS011;67066;51.964;5.924;2024-03-17T08:53:34;12.07;;;6.75;;
33076;SDS011;67066;51.964;5.924;2024-03-17T08:56:02;10.23;;;7.28;;
33076;SDS011;67066;51.964;5.924;2024-03-17T08:58:29;9.63;;;7.15;;
33076;SDS011;67066;51.964;5.924;2024-03-17T09:00:55;12.65;;;7.35;;
33076;SDS011;67066;51.964;5.924;2024-03-17T09:03:22;9.73;;;6.78;;
33076;SDS011;67066;51.964;5.924;2024-03-17T09:05:48;14.85;;;6.50;;
33076;SDS011;67066;51.964;5.924;2024-03-17T09:10:48;9.38;;;6.40;;
33076;SDS011;67066;51.964;5.924;2024-03-17T09:13:16;10.80;;;6.35;;
33076;SDS011;67066;51.964;5.924;2024-03-17T09:15:50;7.93;;;5.97;;
33076;SDS011;67066;51.964;5.924;2024-03-17T09:18:28;9.70;;;5.18;;
33076;SDS011;67066;51.964;5.924;2024-03-17T09:20:56;8.95;;;6.05;;
33076;SDS011;67066;51.964;5.924;2024-03-17T09:23:26;9.68;;;6.13;;
33076;SDS011;67066;51.964;5.924;2024-03-17T09:25:56;15.45;;;7.53;;
33076;SDS011;67066;51.964;5.924;2024-03-17T09:28:30;9.55;;;6.90;;
33076;SDS011;67066;51.964;5.924;2024-03-17T09:30:57;12.55;;;6.65;;
33076;SDS011;67066;51.964;5.924;2024-03-17T09:33:24;7.32;;;6.18;;
33076;SDS011;67066;51.964;5.924;2024-03-17T09:35:54;12.25;;;7.30;;
33076;SDS011;67066;51.964;5.924;2024-03-17T09:38:23;9.85;;;6.50;;
33076;SDS011;67066;51.964;5.924;2024-03-17T09:40:49;11.18;;;6.75;;
33076;SDS011;67066;51.964;5.924;2024-03-17T09:43:18;8.48;;;6.32;;
33076;SDS011;67066;51.964;5.924;2024-03-17T09:45:46;8.95;;;5.30;;
33076;SDS011;67066;51.964;5.924;2024-03-17T09:48:16;10.80;;;6.25;;
33076;SDS011;67066;51.964;5.924;2024-03-17T09:50:52;9.43;;;6.80;;
33076;SDS011;67066;51.964;5.924;2024-03-17T09:53:22;15.45;;;7.60;;
33076;SDS011;67066;51.964;5.924;2024-03-17T09:55:52;12.25;;;7.70;;
33076;SDS011;67066;51.964;5.924;2024-03-17T09:58:22;11.25;;;6.47;;
33076;SDS011;67066;51.964;5.924;2024-03-17T10:00:48;11.18;;;6.85;;
33076;SDS011;67066;51.964;5.924;2024-03-17T10:11:13;12.02;;;7.57;;
33076;SDS011;67066;51.964;5.924;2024-03-17T10:13:44;13.23;;;7.53;;
33076;SDS011;67066;51.964;5.924;2024-03-17T10:16:20;10.40;;;7.50;;
33076;SDS011;67066;51.964;5.924;2024-03-17T10:18:49;9.93;;;7.20;;
33076;SDS011;67066;51.964;5.924;2024-03-17T10:21:24;10.90;;;7.88;;
33076;SDS011;67066;51.964;5.924;2024-03-17T10:26:36;15.60;;;7.90;;
33076;SDS011;67066;51.964;5.924;2024-03-17T10:29:19;9.73;;;7.43;;
33076;SDS011;67066;51.964;5.924;2024-03-17T10:31:45;11.38;;;7.80;;
33076;SDS011;67066;51.964;5.924;2024-03-17T10:34:14;11.60;;;7.93;;
33076;SDS011;67066;51.964;5.924;2024-03-17T10:36:45;15.25;;;7.32;;
33076;SDS011;67066;51.964;5.924;2024-03-17T10:39:19;11.23;;;7.40;;
33076;SDS011;67066;51.964;5.924;2024-03-17T10:41:57;9.77;;;7.38;;
33076;SDS011;67066;51.964;5.924;2024-03-17T10:44:28;11.68;;;8.43;;
33076;SDS011;67066;51.964;5.924;2024-03-17T10:46:55;13.30;;;8.27;;
33076;SDS011;67066;51.964;5.924;2024-03-17T10:49:27;11.60;;;7.32;;
33076;SDS011;67066;51.964;5.924;2024-03-17T10:52:01;14.27;;;7.60;;
33076;SDS011;67066;51.964;5.924;2024-03-17T10:54:40;11.73;;;7.88;;
33076;SDS011;67066;51.964;5.924;2024-03-17T10:59:58;15.90;;;8.30;;
33076;SDS011;67066;51.964;5.924;2024-03-17T11:02:26;14.43;;;7.32;;
33076;SDS011;67066;51.964;5.924;2024-03-17T11:07:31;9.45;;;6.93;;
33076;SDS011;67066;51.964;5.924;2024-03-17T11:10:00;13.63;;;7.38;;
33076;SDS011;67066;51.964;5.924;2024-03-17T11:12:45;12.73;;;7.65;;
33076;SDS011;67066;51.964;5.924;2024-03-17T11:17:45;11.68;;;7.43;;
33076;SDS011;67066;51.964;5.924;2024-03-17T11:20:15;12.23;;;7.32;;
33076;SDS011;67066;51.964;5.924;2024-03-17T11:22:44;12.18;;;8.00;;
33076;SDS011;67066;51.964;5.924;2024-03-17T11:27:55;13.52;;;6.93;;
33076;SDS011;67066;51.964;5.924;2024-03-17T11:38:54;14.35;;;7.78;;
33076;SDS011;67066;51.964;5.924;2024-03-17T11:41:30;12.23;;;7.50;;
33076;SDS011;67066;51.964;5.924;2024-03-17T11:47:02;10.63;;;7.97;;
33076;SDS011;67066;51.964;5.924;2024-03-17T11:51:59;18.02;;;8.25;;
33076;SDS011;67066;51.964;5.924;2024-03-17T11:54:28;14.55;;;7.93;;
33076;SDS011;67066;51.964;5.924;2024-03-17T11:57:00;11.73;;;7.45;;
33076;SDS011;67066;51.964;5.924;2024-03-17T11:59:52;12.60;;;7.55;;
33076;SDS011;67066;51.964;5.924;2024-03-17T12:04:56;18.67;;;8.88;;
33076;SDS011;67066;51.964;5.924;2024-03-17T12:07:23;12.57;;;7.80;;
33076;SDS011;67066;51.964;5.924;2024-03-17T12:09:51;13.27;;;7.43;;
33076;SDS011;67066;51.964;5.924;2024-03-17T12:12:21;13.63;;;8.20;;
33076;SDS011;67066;51.964;5.924;2024-03-17T12:14:49;12.27;;;7.68;;
33076;SDS011;67066;51.964;5.924;2024-03-17T12:17:22;15.30;;;8.60;;
33076;SDS011;67066;51.964;5.924;2024-03-17T12:19:50;13.73;;;7.35;;
33076;SDS011;67066;51.964;5.924;2024-03-17T12:22:18;16.35;;;8.57;;
33076;SDS011;67066;51.964;5.924;2024-03-17T12:24:54;12.15;;;8.50;;
33076;SDS011;67066;51.964;5.924;2024-03-17T12:27:22;12.85;;;7.80;;
33076;SDS011;67066;51.964;5.924;2024-03-17T12:29:49;16.05;;;8.40;;
33076;SDS011;67066;51.964;5.924;2024-03-17T12:32:17;14.05;;;8.30;;
33076;SDS011;67066;51.964;5.924;2024-03-17T12:34:46;16.00;;;7.85;;
33076;SDS011;67066;51.964;5.924;2024-03-17T12:37:19;12.43;;;7.43;;
33076;SDS011;67066;51.964;5.924;2024-03-17T12:39:50;11.23;;;7.97;;
33076;SDS011;67066;51.964;5.924;2024-03-17T12:42:23;12.73;;;8.77;;
33076;SDS011;67066;51.964;5.924;2024-03-17T12:44:51;13.13;;;7.43;;
33076;SDS011;67066;51.964;5.924;2024-03-17T12:47:30;15.68;;;8.05;;
33076;SDS011;67066;51.964;5.924;2024-03-17T12:49:58;11.05;;;7.20;;
33076;SDS011;67066;51.964;5.924;2024-03-17T12:52:25;11.20;;;7.28;;
33076;SDS011;67066;51.964;5.924;2024-03-17T12:55:08;11.40;;;7.70;;
33076;SDS011;67066;51.964;5.924;2024-03-17T13:01:00;13.93;;;7.20;;
33076;SDS011;67066;51.964;5.924;2024-03-17T13:03:27;12.88;;;7.82;;
33076;SDS011;67066;51.964;5.924;2024-03-17T13:05:55;15.48;;;9.05;;
33076;SDS011;67066;51.964;5.924;2024-03-17T13:08:21;14.60;;;8.48;;
33076;SDS011;67066;51.964;5.924;2024-03-17T13:10:47;14.60;;;7.38;;
33076;SDS011;67066;51.964;5.924;2024-03-17T13:13:13;20.23;;;9.30;;
33076;SDS011;67066;51.964;5.924;2024-03-17T13:15:41;12.95;;;7.90;;
33076;SDS011;67066;51.964;5.924;2024-03-17T13:18:08;13.70;;;8.32;;
33076;SDS011;67066;51.964;5.924;2024-03-17T13:20:34;14.80;;;8.20;;
33076;SDS011;67066;51.964;5.924;2024-03-17T13:23:01;15.77;;;7.47;;
33076;SDS011;67066;51.964;5.924;2024-03-17T13:25:28;13.80;;;7.20;;
33076;SDS011;67066;51.964;5.924;2024-03-17T13:28:02;12.88;;;8.00;;
33076;SDS011;67066;51.964;5.924;2024-03-17T13:30:30;15.40;;;8.05;;
33076;SDS011;67066;51.964;5.924;2024-03-17T13:32:59;14.57;;;7.32;;
33076;SDS011;67066;51.964;5.924;2024-03-17T13:35:26;14.93;;;7.68;;
33076;SDS011;67066;51.964;5.924;2024-03-17T13:37:54;18.55;;;8.27;;
33076;SDS011;67066;51.964;5.924;2024-03-17T13:40:22;14.25;;;8.52;;
33076;SDS011;67066;51.964;5.924;2024-03-17T13:42:50;21.98;;;8.27;;
33076;SDS011;67066;51.964;5.924;2024-03-17T13:45:18;13.00;;;7.80;;
33076;SDS011;67066;51.964;5.924;2024-03-17T13:47:59;20.67;;;8.23;;
33076;SDS011;67066;51.964;5.924;2024-03-17T13:50:27;16.60;;;8.27;;
33076;SDS011;67066;51.964;5.924;2024-03-17T13:52:53;14.55;;;7.95;;
33076;SDS011;67066;51.964;5.924;2024-03-17T13:55:21;21.40;;;8.43;;
33076;SDS011;67066;51.964;5.924;2024-03-17T13:57:54;19.88;;;8.63;;
33076;SDS011;67066;51.964;5.924;2024-03-17T14:00:22;17.77;;;8.55;;
33076;SDS011;67066;51.964;5.924;2024-03-17T14:02:51;16.50;;;7.57;;
33076;SDS011;67066;51.964;5.924;2024-03-17T14:05:27;18.95;;;8.27;;
33076;SDS011;67066;51.964;5.924;2024-03-17T14:07:54;20.48;;;7.93;;
33076;SDS011;67066;51.964;5.924;2024-03-17T14:10:21;21.98;;;8.40;;
33076;SDS011;67066;51.964;5.924;2024-03-17T14:12:49;21.38;;;7.45;;
33076;SDS011;67066;51.964;5.924;2024-03-17T14:15:16;15.07;;;8.25;;
33076;SDS011;67066;51.964;5.924;2024-03-17T14:17:46;19.20;;;8.25;;
33076;SDS011;67066;51.964;5.924;2024-03-17T14:20:13;18.27;;;8.60;;
33076;SDS011;67066;51.964;5.924;2024-03-17T14:22:41;13.98;;;8.35;;
33076;SDS011;67066;51.964;5.924;2024-03-17T14:25:09;17.75;;;9.30;;
33076;SDS011;67066;51.964;5.924;2024-03-17T14:27:44;22.88;;;8.50;;
33076;SDS011;67066;51.964;5.924;2024-03-17T14:30:11;16.83;;;9.13;;
33076;SDS011;67066;51.964;5.924;2024-03-17T14:32:43;15.55;;;8.48;;
33076;SDS011;67066;51.964;5.924;2024-03-17T14:35:13;20.10;;;7.70;;
33076;SDS011;67066;51.964;5.924;2024-03-17T14:37:42;19.52;;;8.45;;
33076;SDS011;67066;51.964;5.924;2024-03-17T14:40:13;16.52;;;7.80;;
33076;SDS011;67066;51.964;5.924;2024-03-17T14:42:47;20.35;;;8.07;;
33076;SDS011;67066;51.964;5.924;2024-03-17T14:45:14;16.23;;;8.10;;
33076;SDS011;67066;51.964;5.924;2024-03-17T14:47:40;13.13;;;7.63;;
33076;SDS011;67066;51.964;5.924;2024-03-17T14:50:06;14.85;;;8.40;;
33076;SDS011;67066;51.964;5.924;2024-03-17T14:52:33;16.65;;;8.05;;
33076;SDS011;67066;51.964;5.924;2024-03-17T14:55:00;15.32;;;7.78;;
33076;SDS011;67066;51.964;5.924;2024-03-17T14:57:26;20.58;;;8.07;;
33076;SDS011;67066;51.964;5.924;2024-03-17T14:59:52;11.63;;;7.45;;
33076;SDS011;67066;51.964;5.924;2024-03-17T15:02:18;12.68;;;6.78;;
33076;SDS011;67066;51.964;5.924;2024-03-17T15:04:44;14.25;;;7.90;;
33076;SDS011;67066;51.964;5.924;2024-03-17T15:07:10;14.23;;;8.60;;
33076;SDS011;67066;51.964;5.924;2024-03-17T15:09:38;20.08;;;7.88;;
33076;SDS011;67066;51.964;5.924;2024-03-17T15:12:06;14.27;;;8.13;;
33076;SDS011;67066;51.964;5.924;2024-03-17T15:14:32;18.00;;;8.52;;
33076;SDS011;67066;51.964;5.924;2024-03-17T15:16:58;14.40;;;7.20;;
33076;SDS011;67066;51.964;5.924;2024-03-17T15:19:24;14.40;;;7.90;;
33076;SDS011;67066;51.964;5.924;2024-03-17T15:21:50;17.55;;;7.60;;